Cape Express — HO5337 — position and weather

sailwx.info

Track history (hours):
 
Tides and Currents Weather Stations Pressure Air Temp Water Temp Dewpoint Dewpoint Depression Visibility Wind Speed Wind Dir Waves Ship Positions

Cape Express

Last reported at 2016-May-27 23:33 UTC. Time now 2016-May-28 00:07 UTC.
Position N 26°04' W 080°08'.

Length 29 m; draft 2.2 m.

Type: Cargo ship. MMSI: 370269000.

Date/timePositionNaut miles runAvg speedWind from/ knotsBaromVisibWave heightAir tempDewpointWater temp
2016-May-27 23:33N 26°04' W 080°08'1 0.8
2016-May-27 22:33N 26°04' W 080°07'8 7.9
2016-May-27 21:33N 26°08' W 079°59'8 8.4
2016-May-27 20:33N 26°10' W 079°50'8 8.3
2016-May-27 19:33N 26°13' W 079°41'8 0.6
2016-May-27 06:16N 26°16' W 079°33'6 8.9
2016-May-27 05:33N 26°14' W 079°40'9 8.8
2016-May-27 04:33N 26°11' W 079°49'9 9.0
2016-May-27 03:33N 26°07' W 079°59'8 7.9
2016-May-27 02:33N 26°04' W 080°07'1 1.2
2016-May-27 01:33N 26°04' W 080°08'0 0.0
2016-May-27 00:33N 26°04' W 080°08'0 0.0
2016-May-26 23:33N 26°04' W 080°08'0 0.0
2016-May-26 22:33N 26°04' W 080°08'0 0.0
2016-May-26 21:33N 26°04' W 080°08'2 2.1
2016-May-26 20:33N 26°06' W 080°07'9 9.0
2016-May-26 19:33N 26°08' W 079°57'8 7.9
2016-May-26 18:33N 26°11' W 079°49'8 8.2
2016-May-26 17:33N 26°13' W 079°40'9 0.7
2016-May-26 05:28N 26°16' W 079°31'9 9.5
2016-May-26 04:33N 26°13' W 079°40'9 9.3
2016-May-26 03:33N 26°10' W 079°50'9 9.4
2016-May-26 02:33N 26°07' W 079°60'8 7.5
2016-May-26 01:33N 26°04' W 080°07'0 0.5
2016-May-26 00:33N 26°04' W 080°08'0 0.0
2016-May-25 23:33N 26°04' W 080°08'0 0.0
2016-May-25 22:33N 26°04' W 080°08'0 0.0
2016-May-25 21:33N 26°04' W 080°08'0 0.0
2016-May-25 20:33N 26°04' W 080°08'0 0.0
2016-May-25 19:33N 26°04' W 080°08'0 0.0
2016-May-25 18:33N 26°04' W 080°08'0 0.0
2016-May-25 17:33N 26°04' W 080°08'0 0.0
2016-May-25 16:33N 26°04' W 080°08'0 0.0
2016-May-25 15:33N 26°04' W 080°08'0 0.0
2016-May-25 14:33N 26°04' W 080°08'0 0.0
2016-May-25 13:33N 26°04' W 080°08'0 0.0
2016-May-25 12:33N 26°04' W 080°08'0 0.0
2016-May-25 11:33N 26°04' W 080°08'3 3.4
2016-May-25 10:33N 26°05' W 080°04'1110.5
2016-May-25 09:33N 26°02' W 079°53'1010.1
2016-May-25 08:33N 25°60' W 079°42'10 9.7
2016-May-25 07:33N 25°57' W 079°32'  
2016-May-22 06:05N 25°57' W 079°30'6 9.8
2016-May-22 05:27N 25°58' W 079°37'8 9.2
2016-May-22 04:33N 26°01' W 079°45'8 8.3
2016-May-22 03:33N 26°03' W 079°54'7 7.4
2016-May-22 02:33N 26°05' W 080°02'5 5.2
2016-May-22 01:33N 26°04' W 080°08'0 0.0
2016-May-22 00:33N 26°04' W 080°08'0 0.0
2016-May-21 23:33N 26°04' W 080°08'0 0.0
2016-May-21 22:33N 26°04' W 080°08'0 0.0
2016-May-21 21:33N 26°04' W 080°08'0 0.1
2016-May-21 20:33N 26°04' W 080°08'0 0.0
2016-May-21 19:33N 26°04' W 080°08'2 2.0
2016-May-21 18:33N 26°05' W 080°07'10 9.8
2016-May-21 17:33N 26°03' W 079°56'1010.2
2016-May-21 16:33N 26°01' W 079°45'1010.3
2016-May-21 15:33N 25°57' W 079°34'4 0.1
2016-May-19 22:33N 25°57' W 079°30'9 9.3
2016-May-19 21:33N 25°59' W 079°40'9 8.6
2016-May-19 20:33N 26°01' W 079°50'8 8.3
2016-May-19 19:33N 26°03' W 079°58'8 7.9
2016-May-19 18:33N 26°06' W 080°07'2 2.0
2016-May-19 17:33N 26°04' W 080°08'0 0.0
2016-May-19 16:32N 26°04' W 080°08'0 0.0
2016-May-19 15:32N 26°04' W 080°08'0 0.0
2016-May-19 14:33N 26°04' W 080°08'0 0.0
2016-May-19 13:33N 26°04' W 080°08'0 0.0
2016-May-19 12:33N 26°04' W 080°08'1 1.5
2016-May-19 11:33N 26°05' W 080°07'8 7.6
2016-May-19 10:33N 26°04' W 079°58'10 9.7
2016-May-19 09:33N 26°01' W 079°48'10 9.6
2016-May-19 08:33N 25°59' W 079°38'10 9.6
2016-May-19 07:33N 25°56' W 079°28'2 0.1
2016-May-18 05:17N 25°56' W 079°30'7 9.1
2016-May-18 04:33N 25°58' W 079°37'9 8.8
2016-May-18 03:33N 26°00' W 079°46'8 8.3
2016-May-18 02:33N 26°03' W 079°55'8 8.3
2016-May-18 01:33N 26°05' W 080°04'4 3.8
2016-May-18 00:33N 26°04' W 080°08'  
Track history (hours):
 
Tides and Currents Weather Stations Pressure Air Temp Water Temp Dewpoint Dewpoint Depression Visibility Wind Speed Wind Dir Waves Ship Positions

Cape Express

Last reported at 2016-May-27 23:33 UTC. Time now 2016-May-28 00:07 UTC.
Position N 26°04' W 080°08'.

Length 29 m; draft 2.2 m.

Type: Cargo ship. MMSI: 370269000.

Date/timePositionNaut miles runAvg speedWind from/ knotsBaromVisibWave heightAir tempDewpointWater temp
2016-May-27 23:33N 26°04' W 080°08'1 0.8
2016-May-27 22:33N 26°04' W 080°07'8 7.9
2016-May-27 21:33N 26°08' W 079°59'8 8.4
2016-May-27 20:33N 26°10' W 079°50'8 8.3
2016-May-27 19:33N 26°13' W 079°41'8 0.6
2016-May-27 06:16N 26°16' W 079°33'6 8.9
2016-May-27 05:33N 26°14' W 079°40'9 8.8
2016-May-27 04:33N 26°11' W 079°49'9 9.0
2016-May-27 03:33N 26°07' W 079°59'8 7.9
2016-May-27 02:33N 26°04' W 080°07'1 1.2
2016-May-27 01:33N 26°04' W 080°08'0 0.0
2016-May-27 00:33N 26°04' W 080°08'0 0.0
2016-May-26 23:33N 26°04' W 080°08'0 0.0
2016-May-26 22:33N 26°04' W 080°08'0 0.0
2016-May-26 21:33N 26°04' W 080°08'2 2.1
2016-May-26 20:33N 26°06' W 080°07'9 9.0
2016-May-26 19:33N 26°08' W 079°57'8 7.9
2016-May-26 18:33N 26°11' W 079°49'8 8.2
2016-May-26 17:33N 26°13' W 079°40'9 0.7
2016-May-26 05:28N 26°16' W 079°31'9 9.5
2016-May-26 04:33N 26°13' W 079°40'9 9.3
2016-May-26 03:33N 26°10' W 079°50'9 9.4
2016-May-26 02:33N 26°07' W 079°60'8 7.5
2016-May-26 01:33N 26°04' W 080°07'0 0.5
2016-May-26 00:33N 26°04' W 080°08'0 0.0
2016-May-25 23:33N 26°04' W 080°08'0 0.0
2016-May-25 22:33N 26°04' W 080°08'0 0.0
2016-May-25 21:33N 26°04' W 080°08'0 0.0
2016-May-25 20:33N 26°04' W 080°08'0 0.0
2016-May-25 19:33N 26°04' W 080°08'0 0.0
2016-May-25 18:33N 26°04' W 080°08'0 0.0
2016-May-25 17:33N 26°04' W 080°08'0 0.0
2016-May-25 16:33N 26°04' W 080°08'0 0.0
2016-May-25 15:33N 26°04' W 080°08'0 0.0
2016-May-25 14:33N 26°04' W 080°08'0 0.0
2016-May-25 13:33N 26°04' W 080°08'0 0.0
2016-May-25 12:33N 26°04' W 080°08'0 0.0
2016-May-25 11:33N 26°04' W 080°08'3 3.4
2016-May-25 10:33N 26°05' W 080°04'1110.5
2016-May-25 09:33N 26°02' W 079°53'1010.1
2016-May-25 08:33N 25°60' W 079°42'10 9.7
2016-May-25 07:33N 25°57' W 079°32'  
2016-May-22 06:05N 25°57' W 079°30'6 9.8
2016-May-22 05:27N 25°58' W 079°37'8 9.2
2016-May-22 04:33N 26°01' W 079°45'8 8.3
2016-May-22 03:33N 26°03' W 079°54'7 7.4
2016-May-22 02:33N 26°05' W 080°02'5 5.2
2016-May-22 01:33N 26°04' W 080°08'0 0.0
2016-May-22 00:33N 26°04' W 080°08'0 0.0
2016-May-21 23:33N 26°04' W 080°08'0 0.0
2016-May-21 22:33N 26°04' W 080°08'0 0.0
2016-May-21 21:33N 26°04' W 080°08'0 0.1
2016-May-21 20:33N 26°04' W 080°08'0 0.0
2016-May-21 19:33N 26°04' W 080°08'2 2.0
2016-May-21 18:33N 26°05' W 080°07'10 9.8
2016-May-21 17:33N 26°03' W 079°56'1010.2
2016-May-21 16:33N 26°01' W 079°45'1010.3
2016-May-21 15:33N 25°57' W 079°34'4 0.1
2016-May-19 22:33N 25°57' W 079°30'9 9.3
2016-May-19 21:33N 25°59' W 079°40'9 8.6
2016-May-19 20:33N 26°01' W 079°50'8 8.3
2016-May-19 19:33N 26°03' W 079°58'8 7.9
2016-May-19 18:33N 26°06' W 080°07'2 2.0
2016-May-19 17:33N 26°04' W 080°08'0 0.0
2016-May-19 16:32N 26°04' W 080°08'0 0.0
2016-May-19 15:32N 26°04' W 080°08'0 0.0
2016-May-19 14:33N 26°04' W 080°08'0 0.0
2016-May-19 13:33N 26°04' W 080°08'0 0.0
2016-May-19 12:33N 26°04' W 080°08'1 1.5
2016-May-19 11:33N 26°05' W 080°07'8 7.6
2016-May-19 10:33N 26°04' W 079°58'10 9.7
2016-May-19 09:33N 26°01' W 079°48'10 9.6
2016-May-19 08:33N 25°59' W 079°38'10 9.6
2016-May-19 07:33N 25°56' W 079°28'2 0.1
2016-May-18 05:17N 25°56' W 079°30'7 9.1
2016-May-18 04:33N 25°58' W 079°37'9 8.8
2016-May-18 03:33N 26°00' W 079°46'8 8.3
2016-May-18 02:33N 26°03' W 079°55'8 8.3
2016-May-18 01:33N 26°05' W 080°04'4 3.8
2016-May-18 00:33N 26°04' W 080°08'  

Dump ship's entire track history